createdAt,value
2018-04-25T00:00:48.168Z,61.28
2018-04-25T00:01:48.380Z,62.50
2018-04-25T00:02:48.571Z,61.28
2018-04-25T00:03:48.806Z,63.48
2018-04-25T00:04:48.989Z,65.19
2018-04-25T00:05:49.178Z,60.06
2018-04-25T00:06:49.383Z,61.77
2018-04-25T00:07:49.587Z,61.77
2018-04-25T00:08:49.782Z,63.23
2018-04-25T00:09:49.989Z,62.50
2018-04-25T00:10:50.181Z,60.30
2018-04-25T00:11:50.389Z,62.99
2018-04-25T00:12:50.586Z,62.99
2018-04-25T00:13:50.769Z,65.67
2018-04-25T00:14:51.022Z,62.01
2018-04-25T00:15:51.195Z,63.23
2018-04-25T00:16:51.299Z,62.99
2018-04-25T00:17:51.480Z,61.77
2018-04-25T00:18:51.676Z,62.99
2018-04-25T00:22:23.982Z,63.72
2018-04-25T00:23:24.168Z,65.43
2018-04-25T00:24:24.427Z,63.48
2018-04-25T00:25:24.560Z,62.01
2018-04-25T00:26:24.753Z,60.55
2018-04-25T00:27:24.951Z,60.06
2018-04-25T00:28:25.140Z,60.79
2018-04-25T00:29:25.347Z,61.28
2018-04-25T00:30:25.559Z,62.74
2018-04-25T00:31:25.756Z,60.55
2018-04-25T00:34:58.211Z,61.04
2018-04-25T00:35:58.409Z,61.28
2018-04-25T00:36:58.603Z,60.30
2018-04-25T00:37:58.813Z,62.01
2018-04-25T00:38:59.001Z,62.50
2018-04-25T00:39:59.187Z,60.79
2018-04-25T00:40:59.399Z,61.52
2018-04-25T00:41:59.605Z,62.99
2018-04-25T00:42:59.792Z,61.28
2018-04-25T00:43:59.993Z,62.50
2018-04-25T00:45:00.170Z,61.77
2018-04-25T00:46:00.381Z,64.94
2018-04-25T00:47:00.582Z,63.72
2018-04-25T00:48:00.787Z,64.45
2018-04-25T00:49:00.973Z,63.23
2018-04-25T00:50:01.173Z,62.50
2018-04-25T00:51:01.375Z,61.52
2018-04-25T00:54:33.676Z,63.96
2018-04-25T00:55:33.860Z,65.92
2018-04-25T00:56:34.051Z,62.50
2018-04-25T00:57:34.263Z,60.06
2018-04-25T00:58:34.478Z,63.23
2018-04-25T00:59:34.686Z,61.52
2018-04-25T01:00:34.869Z,64.70
2018-04-25T01:01:35.108Z,62.99
2018-04-25T01:02:35.304Z,59.57
2018-04-25T01:03:35.492Z,62.50
2018-04-25T01:04:35.672Z,62.74
2018-04-25T01:05:35.869Z,63.48
2018-04-25T01:06:36.069Z,60.79
2018-04-25T01:07:36.250Z,62.01
2018-04-25T01:08:36.446Z,61.04
2018-04-25T01:09:36.662Z,62.50
2018-04-25T01:10:36.867Z,61.52
2018-04-25T01:11:37.103Z,64.21
2018-04-25T01:12:37.249Z,58.11
2018-04-25T01:13:37.458Z,62.50
2018-04-25T01:14:37.663Z,62.26
2018-04-25T01:15:37.861Z,65.43
2018-04-25T01:16:38.092Z,66.65
2018-04-25T01:17:38.186Z,63.23
2018-04-25T01:18:38.396Z,61.04
2018-04-25T01:19:38.678Z,62.26
2018-04-25T01:20:38.801Z,62.74
2018-04-25T01:21:38.986Z,60.55
2018-04-25T01:22:39.174Z,62.50
2018-04-25T01:23:39.374Z,61.28
2018-04-25T01:24:39.560Z,60.79
2018-04-25T01:25:39.750Z,62.99
2018-04-25T01:26:39.964Z,63.48
2018-04-25T01:27:40.167Z,62.01
2018-04-25T01:28:40.360Z,62.01
2018-04-25T01:29:40.546Z,61.77
2018-04-25T01:30:40.906Z,63.96
2018-04-25T01:31:40.981Z,61.28
2018-04-25T01:32:41.170Z,62.01
2018-04-25T01:33:41.352Z,58.35
2018-04-25T01:34:41.556Z,62.99
2018-04-25T01:35:41.747Z,63.96
2018-04-25T01:36:41.958Z,65.92
2018-04-25T01:37:42.158Z,61.04
2018-04-25T01:38:42.348Z,64.94
2018-04-25T01:39:42.528Z,63.23
2018-04-25T01:40:42.736Z,62.99
2018-04-25T01:41:42.943Z,62.74
2018-04-25T01:42:43.134Z,62.74
2018-04-25T01:43:43.320Z,63.23
2018-04-25T01:44:43.503Z,62.26
2018-04-25T01:45:43.697Z,62.74
2018-04-25T01:46:43.889Z,63.48
2018-04-25T01:47:44.094Z,63.96
2018-04-25T01:48:44.276Z,62.99
2018-04-25T01:49:44.486Z,62.99
2018-04-25T01:50:44.690Z,62.74
2018-04-25T01:51:44.956Z,62.74
2018-04-25T01:52:45.029Z,62.50
2018-04-25T01:53:45.224Z,62.50
2018-04-25T01:54:45.406Z,64.21
2018-04-25T01:55:45.599Z,63.23
2018-04-25T01:56:45.803Z,60.79
2018-04-25T01:57:45.994Z,64.21
2018-04-25T01:58:46.183Z,62.26
2018-04-25T01:59:46.387Z,62.01
2018-04-25T02:00:46.583Z,66.65
2018-04-25T02:01:46.789Z,63.23
2018-04-25T02:02:46.989Z,62.01
2018-04-25T02:03:47.198Z,66.89
2018-04-25T02:04:47.402Z,61.77
2018-04-25T02:05:47.607Z,62.74
2018-04-25T02:06:47.794Z,65.67
2018-04-25T02:07:48.003Z,65.43
2018-04-25T02:08:48.198Z,62.99
2018-04-25T02:09:48.402Z,62.99
2018-04-25T02:10:48.600Z,65.19
2018-04-25T02:11:48.804Z,63.96
2018-04-25T02:12:49.009Z,64.45
2018-04-25T02:13:49.192Z,60.79
2018-04-25T02:14:49.393Z,65.43
2018-04-25T02:15:49.597Z,68.36
2018-04-25T02:16:49.792Z,66.65
2018-04-25T02:17:49.997Z,64.45
2018-04-25T02:21:22.272Z,64.21
2018-04-25T02:24:54.632Z,68.12
2018-04-25T02:25:54.717Z,63.72
2018-04-25T02:26:54.953Z,70.07
2018-04-25T02:27:55.089Z,63.48
2018-04-25T02:28:55.285Z,63.72
2018-04-25T02:29:55.492Z,65.19
2018-04-25T02:30:55.693Z,61.52
2018-04-25T02:31:55.898Z,64.70
2018-04-25T02:32:56.076Z,66.65
2018-04-25T02:33:56.257Z,64.21
2018-04-25T02:34:56.460Z,65.67
2018-04-25T02:35:56.648Z,66.41
2018-04-25T02:36:56.878Z,67.38
2018-04-25T02:37:57.053Z,63.96
2018-04-25T02:38:57.238Z,62.01
2018-04-25T02:39:57.431Z,63.72
2018-04-25T02:40:57.623Z,63.72
2018-04-25T02:41:57.815Z,63.72
2018-04-25T02:42:58.000Z,65.92
2018-04-25T02:43:58.179Z,65.92
2018-04-25T02:44:58.400Z,66.65
2018-04-25T02:45:58.606Z,65.92
2018-04-25T02:46:58.808Z,64.70
2018-04-25T02:47:58.995Z,65.67
2018-04-25T02:48:59.191Z,65.67
2018-04-25T02:49:59.395Z,64.45
2018-04-25T02:50:59.594Z,63.96
2018-04-25T02:51:59.781Z,63.23
2018-04-25T02:52:59.981Z,66.16
2018-04-25T02:54:00.198Z,64.70
2018-04-25T02:55:00.376Z,64.45
2018-04-25T02:56:00.589Z,68.85
2018-04-25T02:57:00.860Z,66.89
2018-04-25T02:58:00.929Z,69.34
2018-04-25T02:59:01.226Z,68.60
2018-04-25T03:00:01.333Z,66.89
2018-04-25T03:01:01.515Z,67.38
2018-04-25T03:02:01.724Z,65.67
2018-04-25T03:03:01.921Z,68.85
2018-04-25T03:04:02.103Z,67.87
2018-04-25T03:05:02.311Z,69.34
2018-04-25T03:06:02.508Z,70.31
2018-04-25T03:07:02.707Z,72.75
2018-04-25T03:08:02.887Z,73.24
2018-04-25T03:09:03.086Z,73.97
2018-04-25T03:10:03.295Z,71.29
2018-04-25T03:11:03.484Z,67.63
2018-04-25T03:12:03.693Z,66.41
2018-04-25T03:13:03.874Z,67.63
2018-04-25T03:14:04.072Z,67.63
2018-04-25T03:15:04.271Z,67.14
2018-04-25T03:16:04.488Z,65.43
2018-04-25T03:17:04.669Z,66.89
2018-04-25T03:18:04.931Z,66.16
2018-04-25T03:19:05.011Z,63.48
2018-04-25T03:20:05.196Z,64.70
2018-04-25T03:21:05.391Z,65.92
2018-04-25T03:24:37.494Z,67.14
2018-04-25T03:25:37.690Z,65.19
2018-04-25T03:26:37.883Z,65.92
2018-04-25T03:27:38.167Z,69.09
2018-04-25T03:28:38.270Z,67.14
2018-04-25T03:29:38.455Z,67.38
2018-04-25T03:30:38.673Z,63.96
2018-04-25T03:31:38.856Z,67.14
2018-04-25T03:32:39.062Z,66.41
2018-04-25T03:33:39.244Z,65.43
2018-04-25T03:34:39.424Z,68.36
2018-04-25T03:35:39.619Z,65.43
2018-04-25T03:36:39.825Z,65.43
2018-04-25T03:40:11.906Z,68.12
2018-04-25T03:41:12.096Z,64.94
2018-04-25T03:42:12.273Z,65.43
2018-04-25T03:43:12.477Z,66.16
2018-04-25T03:44:12.671Z,65.43
2018-04-25T03:45:12.879Z,64.45
2018-04-25T03:46:13.067Z,64.94
2018-04-25T03:47:13.284Z,69.34
2018-04-25T03:48:13.468Z,67.14
2018-04-25T03:49:13.690Z,66.16
2018-04-25T03:50:13.861Z,65.67
2018-04-25T03:51:14.061Z,65.19
2018-04-25T03:52:14.247Z,65.19
2018-04-25T03:53:14.431Z,64.70
2018-04-25T03:54:14.637Z,66.16
2018-04-25T03:55:14.817Z,66.65
2018-04-25T03:56:15.015Z,64.70
2018-04-25T03:57:15.201Z,65.92
2018-04-25T03:58:15.397Z,66.16
2018-04-25T03:59:15.610Z,65.19
2018-04-25T04:00:15.792Z,66.65
2018-04-25T04:01:15.980Z,63.72
2018-04-25T04:02:16.187Z,64.45
2018-04-25T04:03:16.403Z,66.65
2018-04-25T04:04:16.584Z,65.67
2018-04-25T04:05:16.775Z,65.43
2018-04-25T04:06:16.961Z,67.14
2018-04-25T04:07:17.178Z,66.65
2018-04-25T04:08:17.370Z,68.85
2018-04-25T04:09:17.564Z,68.60
2018-04-25T04:10:17.767Z,65.19
2018-04-25T04:11:17.952Z,65.92
2018-04-25T04:12:18.155Z,68.12
2018-04-25T04:13:18.350Z,65.92
2018-04-25T04:14:18.556Z,65.92
2018-04-25T04:15:18.749Z,66.89
2018-04-25T04:16:18.940Z,65.43
2018-04-25T04:17:19.148Z,66.41
2018-04-25T04:18:19.332Z,65.19
2018-04-25T04:19:19.521Z,66.65
2018-04-25T04:20:19.715Z,65.67
2018-04-25T04:21:19.923Z,64.94
2018-04-25T04:22:20.104Z,65.67
2018-04-25T04:23:20.290Z,66.65
2018-04-25T04:24:20.490Z,67.14
2018-04-25T04:25:20.670Z,65.43
2018-04-25T04:26:20.871Z,65.67
2018-04-25T04:27:21.074Z,68.12
2018-04-25T04:28:21.280Z,65.43
2018-04-25T04:29:21.473Z,66.65
2018-04-25T04:30:21.657Z,66.89
2018-04-25T04:31:21.855Z,69.58
2018-04-25T04:32:22.037Z,69.58
2018-04-25T04:33:22.240Z,65.19
2018-04-25T04:34:22.427Z,67.38
2018-04-25T04:35:22.613Z,67.63
2018-04-25T04:36:22.803Z,70.31
2018-04-25T04:37:23.000Z,70.07
2018-04-25T04:38:23.263Z,67.38
2018-04-25T04:39:23.412Z,67.14
2018-04-25T04:40:23.601Z,70.07
2018-04-25T04:41:23.806Z,66.41
2018-04-25T04:42:24.012Z,67.63
2018-04-25T04:43:24.242Z,67.14
2018-04-25T04:44:24.441Z,66.89
2018-04-25T04:45:24.655Z,66.16
2018-04-25T04:46:24.863Z,66.16
2018-04-25T04:47:25.056Z,73.73
2018-04-25T04:48:25.245Z,70.56
2018-04-25T04:49:25.526Z,69.09
2018-04-25T04:50:25.669Z,69.09
2018-04-25T04:51:25.870Z,68.85
2018-04-25T04:52:26.107Z,69.09
2018-04-25T04:53:26.302Z,68.85
2018-04-25T04:54:26.607Z,67.63
2018-04-25T04:55:26.671Z,65.92
2018-04-25T04:56:26.882Z,70.80
2018-04-25T04:57:27.097Z,66.89
2018-04-25T04:58:27.282Z,68.12
2018-04-25T04:59:27.470Z,67.38
2018-04-25T05:00:27.677Z,67.87
2018-04-25T05:01:27.862Z,68.85
2018-04-25T05:02:28.055Z,69.09
2018-04-25T05:03:28.260Z,69.09
2018-04-25T05:04:28.449Z,67.63
2018-04-25T05:05:28.661Z,68.36
2018-04-25T05:06:28.879Z,66.41
2018-04-25T05:07:29.040Z,67.87
2018-04-25T05:08:29.313Z,68.85
2018-04-25T05:09:29.464Z,69.09
2018-04-25T05:10:29.673Z,67.14
2018-04-25T05:11:29.888Z,68.12
2018-04-25T05:12:30.091Z,66.89
2018-04-25T05:13:30.312Z,69.58
2018-04-25T05:14:30.479Z,67.14
2018-04-25T05:15:30.701Z,68.12
2018-04-25T05:16:30.898Z,66.41
2018-04-25T05:17:31.097Z,65.92
2018-04-25T05:18:31.284Z,69.58
2018-04-25T05:19:31.477Z,66.16
2018-04-25T05:20:31.688Z,65.67
2018-04-25T05:21:31.901Z,64.94
2018-04-25T05:22:32.114Z,65.67
2018-04-25T05:23:32.344Z,67.14
2018-04-25T05:24:32.625Z,66.16
2018-04-25T05:25:32.730Z,66.16
2018-04-25T05:26:32.941Z,65.92
2018-04-25T05:27:33.141Z,66.41
2018-04-25T05:28:33.353Z,64.94
2018-04-25T05:29:33.553Z,65.43
2018-04-25T05:30:33.749Z,65.43
2018-04-25T05:31:33.955Z,64.70
2018-04-25T05:32:34.146Z,66.89
2018-04-25T05:33:34.340Z,65.43
2018-04-25T05:37:06.323Z,65.19
2018-04-25T05:38:06.510Z,66.65
2018-04-25T05:39:06.720Z,64.70
2018-04-25T05:40:06.920Z,63.23
2018-04-25T05:41:07.112Z,66.41
2018-04-25T05:42:07.297Z,63.96
2018-04-25T05:43:07.486Z,63.96
2018-04-25T05:44:07.664Z,65.19
2018-04-25T05:45:07.871Z,64.45
2018-04-25T05:46:08.072Z,65.92
2018-04-25T05:47:08.255Z,64.21
2018-04-25T05:48:08.463Z,65.19
2018-04-25T05:49:08.651Z,65.43
2018-04-25T05:50:08.969Z,63.48
2018-04-25T05:51:09.052Z,63.96
2018-04-25T05:52:09.252Z,66.41
2018-04-25T05:53:09.434Z,64.45
2018-04-25T05:54:09.624Z,64.94
2018-04-25T05:55:09.813Z,62.74
2018-04-25T05:56:09.996Z,65.19
2018-04-25T05:57:10.198Z,63.23
2018-04-25T05:58:10.379Z,67.14
2018-04-25T05:59:10.583Z,64.45
2018-04-25T06:00:10.771Z,63.96
2018-04-25T06:01:10.968Z,66.41
2018-04-25T06:02:11.175Z,64.45
2018-04-25T06:03:11.379Z,65.92
2018-04-25T06:04:11.580Z,64.70
2018-04-25T06:05:11.767Z,63.48
2018-04-25T06:06:11.953Z,65.19
2018-04-25T06:07:12.199Z,63.96
2018-04-25T06:08:12.375Z,64.45
2018-04-25T06:09:12.584Z,65.43
2018-04-25T06:10:12.768Z,69.34
2018-04-25T06:11:12.957Z,66.16
2018-04-25T06:12:13.161Z,64.94
2018-04-25T06:13:13.353Z,65.19
2018-04-25T06:14:13.543Z,64.94
2018-04-25T06:15:13.754Z,63.48
2018-04-25T06:16:13.951Z,66.41
2018-04-25T06:17:14.181Z,65.92
2018-04-25T06:18:14.395Z,63.72
2018-04-25T06:19:14.582Z,63.23
2018-04-25T06:20:14.805Z,64.94
2018-04-25T06:21:14.973Z,64.70
2018-04-25T06:22:15.169Z,64.70
2018-04-25T06:23:15.379Z,66.41
2018-04-25T06:24:15.589Z,63.48
2018-04-25T06:27:47.855Z,64.45
2018-04-25T06:28:48.037Z,64.45
2018-04-25T06:29:48.231Z,69.34
2018-04-25T06:30:48.419Z,64.21
2018-04-25T06:31:48.748Z,65.67
2018-04-25T06:32:48.817Z,63.72
2018-04-25T06:33:49.024Z,66.89
2018-04-25T06:34:49.263Z,62.50
2018-04-25T06:35:49.463Z,65.19
2018-04-25T06:36:49.662Z,64.94
2018-04-25T06:37:49.862Z,65.43
2018-04-25T06:38:50.059Z,65.19
2018-04-25T06:39:50.259Z,66.65
2018-04-25T06:40:50.431Z,66.89
2018-04-25T06:41:50.641Z,64.21
2018-04-25T06:42:50.837Z,63.48
2018-04-25T06:43:51.050Z,63.23
2018-04-25T06:47:23.062Z,68.12
2018-04-25T06:48:23.269Z,63.48
2018-04-25T06:49:23.484Z,66.65
2018-04-25T06:50:23.693Z,62.74
2018-04-25T06:51:23.881Z,64.70
2018-04-25T06:52:24.090Z,64.70
2018-04-25T06:55:56.084Z,64.45
2018-04-25T06:56:56.287Z,63.48
2018-04-25T06:57:56.471Z,65.19
2018-04-25T06:58:56.656Z,65.67
2018-04-25T06:59:56.863Z,64.45
2018-04-25T07:00:57.062Z,67.38
2018-04-25T07:01:57.266Z,62.99
2018-04-25T07:02:57.474Z,66.41
2018-04-25T07:03:57.689Z,64.70
2018-04-25T07:04:57.875Z,66.65
2018-04-25T07:05:58.066Z,66.41
2018-04-25T07:06:58.260Z,70.56
2018-04-25T07:07:58.493Z,64.94
2018-04-25T07:08:58.667Z,64.94
2018-04-25T07:09:58.857Z,74.95
2018-04-25T07:10:59.059Z,77.39
2018-04-25T07:11:59.244Z,78.13
2018-04-25T07:12:59.443Z,75.93
2018-04-25T07:13:59.660Z,76.42
2018-04-25T07:14:59.852Z,76.42
2018-04-25T07:16:00.048Z,73.97
2018-04-25T07:17:00.255Z,75.44
2018-04-25T07:18:00.447Z,73.73
2018-04-25T07:19:00.655Z,69.09
2018-04-25T07:20:00.861Z,69.58
2018-04-25T07:21:01.074Z,78.61
2018-04-25T07:22:01.259Z,77.39
2018-04-25T07:23:01.450Z,70.31
2018-04-25T07:26:33.737Z,69.58
2018-04-25T07:27:33.931Z,69.34
2018-04-25T07:28:34.125Z,63.48
2018-04-25T07:29:34.367Z,65.43
2018-04-25T07:30:34.527Z,67.63
2018-04-25T07:31:34.706Z,65.92
2018-04-25T07:32:34.902Z,64.21
2018-04-25T07:33:35.096Z,64.94
2018-04-25T07:34:35.305Z,62.50
2018-04-25T07:35:35.520Z,65.19
2018-04-25T07:36:35.702Z,67.63
2018-04-25T07:37:35.886Z,67.87
2018-04-25T07:38:36.091Z,64.70
2018-04-25T07:39:36.282Z,66.65
2018-04-25T07:40:36.486Z,65.19
2018-04-25T07:41:36.847Z,66.41
2018-04-25T07:42:36.855Z,65.43
2018-04-25T07:46:09.140Z,71.53
2018-04-25T07:47:09.341Z,67.38
2018-04-25T07:48:09.545Z,66.41
2018-04-25T07:49:09.731Z,75.20
2018-04-25T07:50:09.943Z,72.27
2018-04-25T07:51:10.173Z,66.16
2018-04-25T07:52:10.398Z,66.65
2018-04-25T07:53:10.541Z,65.92
2018-04-25T07:54:10.771Z,67.63
2018-04-25T07:55:10.955Z,69.09
2018-04-25T07:56:11.149Z,70.56
2018-04-25T07:57:11.355Z,68.12
2018-04-25T07:58:11.546Z,66.16
2018-04-25T07:59:11.734Z,74.22
2018-04-25T08:00:11.932Z,64.21
2018-04-25T08:01:12.121Z,78.37
2018-04-25T08:02:12.332Z,64.94
2018-04-25T08:03:12.554Z,74.22
2018-04-25T08:04:12.769Z,64.70
2018-04-25T08:05:12.972Z,63.72
2018-04-25T08:06:13.157Z,65.92
2018-04-25T08:07:13.352Z,65.43
2018-04-25T08:08:13.535Z,73.73
2018-04-25T08:09:13.740Z,66.41
2018-04-25T08:10:13.942Z,80.08
2018-04-25T08:11:14.151Z,73.73
2018-04-25T08:12:14.408Z,64.70
2018-04-25T08:13:14.523Z,63.96
2018-04-25T08:16:46.797Z,80.32
2018-04-25T08:17:46.976Z,65.19
2018-04-25T08:18:47.172Z,62.50
2018-04-25T08:19:47.384Z,74.95
2018-04-25T08:20:47.600Z,65.92
2018-04-25T08:21:47.807Z,62.74
2018-04-25T08:22:48.004Z,67.87
2018-04-25T08:23:48.249Z,70.07
2018-04-25T08:24:48.409Z,66.16
2018-04-25T08:25:48.601Z,70.07
2018-04-25T08:26:48.812Z,71.29
2018-04-25T08:27:49.020Z,63.96
2018-04-25T08:28:49.207Z,73.24
2018-04-25T08:29:49.412Z,71.29
2018-04-25T08:30:49.629Z,69.34
2018-04-25T08:31:49.840Z,71.78
2018-04-25T08:32:50.043Z,69.09
2018-04-25T08:33:50.263Z,62.99
2018-04-25T08:34:50.478Z,65.43
2018-04-25T08:35:50.672Z,60.30
2018-04-25T08:36:50.958Z,64.21
2018-04-25T08:37:51.036Z,66.16
2018-04-25T08:38:51.224Z,62.01
2018-04-25T08:39:51.442Z,73.73
2018-04-25T08:40:51.655Z,61.77
2018-04-25T08:41:51.847Z,72.75
2018-04-25T08:42:52.049Z,63.48
2018-04-25T08:43:52.253Z,65.43
2018-04-25T08:44:52.569Z,69.58
2018-04-25T08:45:52.639Z,67.14
2018-04-25T08:46:52.851Z,63.96
2018-04-25T08:47:53.067Z,75.93
2018-04-25T08:48:53.267Z,66.16
2018-04-25T08:49:53.459Z,72.75
2018-04-25T08:50:53.672Z,72.75
2018-04-25T08:51:53.877Z,72.02
2018-04-25T08:52:54.069Z,65.92
2018-04-25T08:53:54.270Z,76.17
2018-04-25T08:54:54.474Z,64.70
2018-04-25T08:55:54.670Z,66.65
2018-04-25T08:56:54.866Z,73.97
2018-04-25T08:57:55.072Z,70.56
2018-04-25T08:58:55.254Z,76.90
2018-04-25T08:59:55.458Z,76.66
2018-04-25T09:00:55.674Z,64.21
2018-04-25T09:01:55.876Z,64.21
2018-04-25T09:02:56.067Z,73.00
2018-04-25T09:03:56.267Z,64.45
2018-04-25T09:04:56.463Z,70.07
2018-04-25T09:05:56.656Z,68.12
2018-04-25T09:06:56.868Z,61.28
2018-04-25T09:07:57.078Z,68.60
2018-04-25T09:08:57.291Z,70.07
2018-04-25T09:09:57.500Z,76.17
2018-04-25T09:10:57.726Z,73.73
2018-04-25T09:11:57.939Z,66.41
2018-04-25T09:12:58.130Z,74.71
2018-04-25T09:13:58.342Z,70.80
2018-04-25T09:14:58.551Z,72.51
2018-04-25T09:15:58.744Z,63.48
2018-04-25T09:16:58.957Z,64.21
2018-04-25T09:17:59.165Z,74.95
2018-04-25T09:18:59.355Z,73.00
2018-04-25T09:19:59.558Z,74.46
2018-04-25T09:20:59.764Z,69.09
2018-04-25T09:21:59.958Z,68.12
2018-04-25T09:23:00.219Z,64.94
2018-04-25T09:24:00.380Z,66.89
2018-04-25T09:25:00.586Z,64.70
2018-04-25T09:26:00.785Z,68.36
2018-04-25T09:27:00.977Z,60.55
2018-04-25T09:28:01.191Z,63.72
2018-04-25T09:29:01.393Z,74.95
2018-04-25T09:30:01.583Z,74.71
2018-04-25T09:31:01.808Z,73.97
2018-04-25T09:32:01.985Z,68.36
2018-04-25T09:33:02.192Z,72.75
2018-04-25T09:34:02.380Z,74.95
2018-04-25T09:35:02.589Z,66.65
2018-04-25T09:36:02.774Z,65.43
2018-04-25T09:37:02.954Z,72.75
2018-04-25T09:38:03.137Z,61.77
2018-04-25T09:39:03.334Z,62.50
2018-04-25T09:40:03.541Z,72.27
2018-04-25T09:41:03.750Z,74.71
2018-04-25T09:42:03.956Z,75.68
2018-04-25T09:43:04.152Z,68.60
2018-04-25T09:44:04.363Z,66.65
2018-04-25T09:47:36.624Z,74.95
2018-04-25T09:48:36.820Z,70.56
2018-04-25T09:52:09.094Z,76.66
2018-04-25T09:53:09.290Z,66.16
2018-04-25T09:54:09.493Z,64.45
2018-04-25T09:55:09.684Z,65.92
2018-04-25T09:56:09.878Z,64.45
2018-04-25T09:57:10.065Z,71.04
2018-04-25T09:58:10.266Z,72.02
2018-04-25T09:59:10.472Z,73.24
2018-04-25T10:00:10.666Z,74.71
2018-04-25T10:01:10.958Z,73.00
2018-04-25T10:02:11.030Z,77.39
2018-04-25T10:03:11.213Z,71.78
2018-04-25T10:04:11.403Z,76.17
2018-04-25T10:05:11.592Z,74.95
2018-04-25T10:06:11.806Z,77.15
2018-04-25T10:07:12.003Z,79.10
2018-04-25T10:08:12.196Z,73.00
2018-04-25T10:09:12.385Z,76.42
2018-04-25T10:10:12.563Z,73.73
2018-04-25T10:11:12.802Z,74.46
2018-04-25T10:12:12.966Z,74.71
2018-04-25T10:13:13.157Z,76.17
2018-04-25T10:14:13.347Z,65.19
2018-04-25T10:15:13.579Z,66.65
2018-04-25T10:16:13.722Z,72.27
2018-04-25T10:17:14.011Z,70.31
2018-04-25T10:18:14.120Z,64.21
2018-04-25T10:19:14.312Z,78.86
2018-04-25T10:20:14.521Z,75.93
2018-04-25T10:21:14.720Z,63.72
2018-04-25T10:22:15.002Z,69.82
2018-04-25T10:25:47.161Z,63.72
2018-04-25T10:26:47.352Z,63.96
2018-04-25T10:27:47.570Z,64.70
2018-04-25T10:28:47.766Z,62.01
2018-04-25T10:29:48.047Z,64.70
2018-04-25T10:30:48.168Z,67.38
2018-04-25T10:31:48.384Z,66.65
2018-04-25T10:32:48.596Z,68.36
2018-04-25T10:33:48.786Z,65.92
2018-04-25T10:34:48.973Z,66.16
2018-04-25T10:35:49.182Z,68.12
2018-04-25T10:36:49.403Z,63.48
2018-04-25T10:37:49.622Z,65.19
2018-04-25T10:38:49.847Z,68.85
2018-04-25T10:39:50.027Z,69.34
2018-04-25T10:40:50.215Z,73.49
2018-04-25T10:41:50.414Z,69.09
2018-04-25T10:42:50.619Z,69.34
2018-04-25T10:43:50.826Z,67.63
2018-04-25T10:44:51.021Z,70.80
2018-04-25T10:45:51.205Z,68.36
2018-04-25T10:46:51.414Z,63.48
2018-04-25T10:47:51.633Z,64.45
2018-04-25T10:48:51.843Z,63.96
2018-04-25T10:49:52.022Z,62.26
2018-04-25T10:50:52.233Z,57.86
2018-04-25T10:51:52.435Z,58.84
2018-04-25T10:52:52.624Z,66.41
2018-04-25T10:53:52.913Z,62.01
2018-04-25T10:54:52.977Z,59.57
2018-04-25T10:55:53.180Z,58.84
2018-04-25T10:56:53.396Z,60.79
2018-04-25T10:57:53.597Z,60.30
2018-04-25T10:58:53.789Z,59.33
2018-04-25T10:59:53.992Z,59.81
2018-04-25T11:00:54.187Z,61.04
2018-04-25T11:01:54.390Z,63.48
2018-04-25T11:02:54.590Z,62.26
2018-04-25T11:03:54.799Z,59.57
2018-04-25T11:04:54.991Z,59.57
2018-04-25T11:05:55.192Z,60.30
2018-04-25T11:06:55.399Z,63.48
2018-04-25T11:07:55.607Z,66.65
2018-04-25T11:08:55.800Z,75.93
2018-04-25T11:09:56.001Z,63.72
2018-04-25T11:10:56.209Z,64.21
2018-04-25T11:11:56.395Z,63.96
2018-04-25T11:12:56.595Z,64.94
2018-04-25T11:13:56.806Z,67.87
2018-04-25T11:14:57.001Z,70.31
2018-04-25T11:15:57.193Z,68.60
2018-04-25T11:16:57.397Z,70.31
2018-04-25T11:17:57.590Z,62.74
2018-04-25T11:18:57.784Z,63.72
2018-04-25T11:19:57.971Z,62.74
2018-04-25T11:20:58.154Z,62.74
2018-04-25T11:21:58.339Z,62.74
2018-04-25T11:22:58.557Z,62.99
2018-04-25T11:23:58.747Z,63.48
2018-04-25T11:24:58.944Z,64.21
2018-04-25T11:25:59.248Z,65.43
2018-04-25T11:26:59.333Z,62.74
2018-04-25T11:27:59.544Z,60.79
2018-04-25T11:28:59.738Z,61.52
2018-04-25T11:29:59.925Z,61.52
2018-04-25T11:31:00.122Z,62.01
2018-04-25T11:32:00.372Z,63.23
2018-04-25T11:33:00.519Z,64.45
2018-04-25T11:34:00.726Z,64.45
2018-04-25T11:35:00.991Z,62.50
2018-04-25T11:36:01.151Z,61.77
2018-04-25T11:37:01.351Z,62.26
2018-04-25T11:38:01.552Z,64.94
2018-04-25T11:39:01.745Z,61.77
2018-04-25T11:40:01.954Z,61.77
2018-04-25T11:41:02.161Z,64.45
2018-04-25T11:42:02.347Z,61.77
2018-04-25T11:43:02.544Z,60.79
2018-04-25T11:44:02.818Z,61.52
2018-04-25T11:45:02.876Z,62.74
2018-04-25T11:46:03.096Z,62.26
2018-04-25T11:47:03.376Z,65.67
2018-04-25T11:48:03.487Z,61.52
2018-04-25T11:49:03.690Z,61.04
2018-04-25T11:50:03.878Z,64.45
2018-04-25T11:51:04.092Z,60.79
2018-04-25T11:52:04.309Z,61.04
2018-04-25T11:53:04.497Z,62.50
2018-04-25T11:54:04.713Z,61.52
2018-04-25T11:55:05.045Z,67.63
2018-04-25T11:56:05.115Z,63.72
2018-04-25T11:57:05.331Z,63.72
2018-04-25T11:58:05.536Z,62.26
2018-04-25T11:59:05.728Z,61.04
2018-04-25T12:00:05.931Z,64.21
2018-04-25T12:01:06.114Z,63.48
2018-04-25T12:02:06.317Z,63.48
2018-04-25T12:03:06.509Z,64.94
2018-04-25T12:04:06.725Z,64.94
2018-04-25T12:05:07.104Z,61.77
2018-04-25T12:06:07.224Z,72.75
2018-04-25T12:07:07.296Z,74.71
2018-04-25T12:08:07.497Z,73.73
2018-04-25T12:09:07.690Z,75.68
2018-04-25T12:10:07.902Z,74.95
2018-04-25T12:11:08.114Z,76.90
2018-04-25T12:12:08.299Z,76.42
2018-04-25T12:13:08.562Z,76.90
2018-04-25T12:14:08.727Z,77.88
2018-04-25T12:15:08.940Z,75.20
2018-04-25T12:16:09.145Z,74.95
2018-04-25T12:17:09.350Z,73.24
2018-04-25T12:18:09.534Z,73.97
2018-04-25T12:19:09.744Z,72.27
2018-04-25T12:20:09.956Z,65.92
2018-04-25T12:21:10.142Z,68.60
2018-04-25T12:22:10.343Z,65.19
2018-04-25T12:23:10.528Z,65.43
2018-04-25T12:24:10.774Z,63.96
2018-04-25T12:25:10.918Z,65.92
2018-04-25T12:26:11.110Z,74.95
2018-04-25T12:27:11.319Z,76.42
2018-04-25T12:28:11.510Z,69.34
2018-04-25T12:29:11.720Z,75.68
2018-04-25T12:30:11.931Z,76.90
2018-04-25T12:31:12.141Z,78.37
2018-04-25T12:32:12.336Z,77.88
2018-04-25T12:33:12.536Z,75.68
2018-04-25T12:34:12.731Z,68.60
2018-04-25T12:35:12.938Z,65.43
2018-04-25T12:36:13.157Z,65.67
2018-04-25T12:37:13.378Z,72.75
2018-04-25T12:38:13.576Z,78.13
2018-04-25T12:39:13.785Z,76.90
2018-04-25T12:40:14.000Z,77.15
2018-04-25T12:41:14.189Z,81.54
2018-04-25T12:42:14.374Z,70.80
2018-04-25T12:43:14.566Z,69.58
2018-04-25T12:46:46.919Z,83.01
2018-04-25T12:47:47.191Z,79.35
2018-04-25T12:48:47.382Z,80.57
2018-04-25T12:49:47.552Z,83.98
2018-04-25T12:50:47.801Z,79.10
2018-04-25T12:51:48.044Z,76.42
2018-04-25T12:52:48.270Z,62.99
2018-04-25T12:53:48.511Z,64.70
2018-04-25T12:54:48.762Z,63.96
2018-04-25T12:55:49.020Z,66.41
2018-04-25T12:56:49.242Z,63.48
2018-04-25T12:57:49.483Z,68.85
2018-04-25T12:58:49.732Z,66.16
2018-04-25T12:59:49.974Z,64.94
2018-04-25T13:00:50.214Z,64.70
2018-04-25T13:01:50.452Z,63.72
2018-04-25T13:02:50.608Z,64.21
2018-04-25T13:03:50.565Z,63.48
2018-04-25T13:04:50.782Z,65.19
2018-04-25T13:05:50.980Z,65.19
2018-04-25T13:06:51.181Z,63.48
2018-04-25T13:07:51.393Z,64.21
2018-04-25T13:08:51.666Z,62.50
2018-04-25T13:09:51.780Z,63.48
2018-04-25T13:10:51.976Z,64.70
2018-04-25T13:11:52.183Z,66.65
2018-04-25T13:12:52.393Z,63.96
2018-04-25T13:13:52.609Z,74.95
2018-04-25T13:14:52.792Z,67.14
2018-04-25T13:15:52.985Z,74.95
2018-04-25T13:16:53.171Z,74.22
2018-04-25T13:17:53.383Z,65.67
2018-04-25T13:18:53.593Z,62.99
2018-04-25T13:19:53.795Z,63.96
2018-04-25T13:20:54.002Z,66.65
2018-04-25T13:21:54.222Z,67.14
2018-04-25T13:22:54.428Z,67.38
2018-04-25T13:23:54.642Z,66.65
2018-04-25T13:24:54.849Z,65.43
2018-04-25T13:25:55.058Z,64.45
2018-04-25T13:26:55.242Z,64.70
2018-04-25T13:27:55.425Z,65.19
2018-04-25T13:28:55.681Z,65.43
2018-04-25T13:29:55.805Z,64.94
2018-04-25T13:30:55.987Z,65.67
2018-04-25T13:31:56.178Z,65.67
2018-04-25T13:32:56.361Z,63.72
2018-04-25T13:33:56.572Z,61.28
2018-04-25T13:34:56.764Z,65.67
2018-04-25T13:35:57.105Z,65.67
2018-04-25T13:36:57.181Z,64.21
2018-04-25T13:37:57.377Z,62.99
2018-04-25T13:38:57.575Z,63.96
2018-04-25T13:39:57.775Z,64.45
2018-04-25T13:40:57.958Z,65.19